sensor_id;sensor_type;location;lat;lon;timestamp;pressure;altitude;pressure_sealevel;temperature;humidity
22582;BME280;47125;48.542;9.052;2023-02-26T00:01:11;95405.66;;;1.56;66.00
22582;BME280;47125;48.542;9.052;2023-02-26T00:11:15;95412.97;;;1.61;66.14
22582;BME280;47125;48.542;9.052;2023-02-26T00:21:17;95410.56;;;1.66;66.26
22582;BME280;47125;48.542;9.052;2023-02-26T00:31:22;95415.69;;;1.74;66.14
22582;BME280;47125;48.542;9.052;2023-02-26T00:41:25;95413.47;;;1.37;66.11
22582;BME280;47125;48.542;9.052;2023-02-26T00:51:30;95427.41;;;1.31;65.88
22582;BME280;47125;48.542;9.052;2023-02-26T01:01:33;95421.25;;;1.17;66.15
22582;BME280;47125;48.542;9.052;2023-02-26T01:11:37;95417.28;;;1.00;66.46
22582;BME280;47125;48.542;9.052;2023-02-26T01:21:40;95410.44;;;1.05;66.49
22582;BME280;47125;48.542;9.052;2023-02-26T01:31:48;95420.06;;;0.92;66.04
22582;BME280;47125;48.542;9.052;2023-02-26T01:41:52;95421.00;;;1.12;64.85
22582;BME280;47125;48.542;9.052;2023-02-26T01:51:58;95421.09;;;0.70;66.19
22582;BME280;47125;48.542;9.052;2023-02-26T02:02:01;95434.78;;;1.14;65.62
22582;BME280;47125;48.542;9.052;2023-02-26T02:12:12;95429.47;;;1.07;65.76
22582;BME280;47125;48.542;9.052;2023-02-26T02:22:20;95433.38;;;0.84;65.58
22582;BME280;47125;48.542;9.052;2023-02-26T02:32:31;95436.66;;;0.92;65.11
22582;BME280;47125;48.542;9.052;2023-02-26T02:42:38;95446.47;;;0.56;65.98
22582;BME280;47125;48.542;9.052;2023-02-26T02:52:45;95453.03;;;0.24;66.49
22582;BME280;47125;48.542;9.052;2023-02-26T03:02:51;95447.59;;;0.26;66.72
22582;BME280;47125;48.542;9.052;2023-02-26T03:12:56;95460.41;;;0.35;65.65
22582;BME280;47125;48.542;9.052;2023-02-26T03:23:02;95466.28;;;0.16;66.09
22582;BME280;47125;48.542;9.052;2023-02-26T03:33:09;95479.59;;;0.15;65.94
22582;BME280;47125;48.542;9.052;2023-02-26T03:43:18;95489.00;;;0.24;65.52
22582;BME280;47125;48.542;9.052;2023-02-26T03:53:23;95491.28;;;-0.03;65.90
22582;BME280;47125;48.542;9.052;2023-02-26T04:03:27;95501.06;;;0.04;66.20
22582;BME280;47125;48.542;9.052;2023-02-26T04:13:33;95502.56;;;0.13;65.65
22582;BME280;47125;48.542;9.052;2023-02-26T04:23:35;95506.88;;;0.35;65.42
22582;BME280;47125;48.542;9.052;2023-02-26T04:33:39;95516.91;;;-0.05;65.69
22582;BME280;47125;48.542;9.052;2023-02-26T04:43:42;95518.72;;;-0.05;66.08
22582;BME280;47125;48.542;9.052;2023-02-26T04:53:45;95533.06;;;-0.37;66.91
22582;BME280;47125;48.542;9.052;2023-02-26T05:03:48;95528.16;;;-0.54;67.13
22582;BME280;47125;48.542;9.052;2023-02-26T05:13:52;95534.25;;;-0.39;67.14
22582;BME280;47125;48.542;9.052;2023-02-26T05:23:54;95544.88;;;-0.26;67.17
22582;BME280;47125;48.542;9.052;2023-02-26T05:33:58;95555.84;;;-0.37;68.20
22582;BME280;47125;48.542;9.052;2023-02-26T05:44:00;95571.38;;;-0.36;68.08
22582;BME280;47125;48.542;9.052;2023-02-26T05:54:05;95581.72;;;-0.34;68.01
22582;BME280;47125;48.542;9.052;2023-02-26T06:04:07;95594.91;;;-0.42;68.37
22582;BME280;47125;48.542;9.052;2023-02-26T06:14:11;95604.84;;;-0.38;68.02
22582;BME280;47125;48.542;9.052;2023-02-26T06:24:13;95619.59;;;-0.51;68.61
22582;BME280;47125;48.542;9.052;2023-02-26T06:34:17;95627.63;;;-0.53;69.38
22582;BME280;47125;48.542;9.052;2023-02-26T06:44:20;95643.34;;;-0.53;69.90
22582;BME280;47125;48.542;9.052;2023-02-26T06:54:24;95660.06;;;-0.54;69.59
22582;BME280;47125;48.542;9.052;2023-02-26T07:04:26;95669.06;;;-0.48;69.42
22582;BME280;47125;48.542;9.052;2023-02-26T07:14:30;95678.06;;;-0.51;70.24
22582;BME280;47125;48.542;9.052;2023-02-26T07:24:32;95696.16;;;-0.56;70.80
22582;BME280;47125;48.542;9.052;2023-02-26T07:34:36;95688.91;;;-0.31;70.45
22582;BME280;47125;48.542;9.052;2023-02-26T07:44:39;95695.28;;;-0.48;71.47
22582;BME280;47125;48.542;9.052;2023-02-26T07:54:43;95700.03;;;-0.15;71.13
22582;BME280;47125;48.542;9.052;2023-02-26T08:04:45;95691.47;;;-0.09;71.38
22582;BME280;47125;48.542;9.052;2023-02-26T08:14:49;95704.63;;;-0.31;71.94
22582;BME280;47125;48.542;9.052;2023-02-26T08:24:51;95701.09;;;-0.38;71.93
22582;BME280;47125;48.542;9.052;2023-02-26T08:34:55;95705.50;;;-0.16;71.93
22582;BME280;47125;48.542;9.052;2023-02-26T08:44:57;95715.44;;;0.03;70.85
22582;BME280;47125;48.542;9.052;2023-02-26T08:55:02;95733.81;;;0.03;70.15
22582;BME280;47125;48.542;9.052;2023-02-26T09:05:05;95744.53;;;0.16;69.56
22582;BME280;47125;48.542;9.052;2023-02-26T09:15:09;95746.22;;;-0.43;69.14
22582;BME280;47125;48.542;9.052;2023-02-26T09:25:12;95758.59;;;-0.14;69.49
22582;BME280;47125;48.542;9.052;2023-02-26T09:35:16;95771.44;;;-0.19;70.12
22582;BME280;47125;48.542;9.052;2023-02-26T09:45:21;95777.75;;;0.09;70.22
22582;BME280;47125;48.542;9.052;2023-02-26T09:55:29;95775.22;;;-0.22;70.48
22582;BME280;47125;48.542;9.052;2023-02-26T10:05:34;95805.94;;;-0.08;71.46
22582;BME280;47125;48.542;9.052;2023-02-26T10:15:40;95807.97;;;0.05;70.79
22582;BME280;47125;48.542;9.052;2023-02-26T10:25:45;95811.31;;;-0.01;71.92
22582;BME280;47125;48.542;9.052;2023-02-26T10:35:51;95804.00;;;0.09;73.15
22582;BME280;47125;48.542;9.052;2023-02-26T10:46:05;95796.22;;;0.68;72.28
22582;BME280;47125;48.542;9.052;2023-02-26T10:56:12;95804.16;;;1.18;69.77
22582;BME280;47125;48.542;9.052;2023-02-26T11:06:17;95811.34;;;0.95;70.20
22582;BME280;47125;48.542;9.052;2023-02-26T11:16:23;95810.41;;;0.44;70.98
22582;BME280;47125;48.542;9.052;2023-02-26T11:26:30;95809.34;;;0.82;70.87
22582;BME280;47125;48.542;9.052;2023-02-26T11:36:36;95805.38;;;0.86;70.33
22582;BME280;47125;48.542;9.052;2023-02-26T11:46:41;95803.91;;;0.84;69.22
22582;BME280;47125;48.542;9.052;2023-02-26T11:56:46;95809.91;;;0.92;67.81
22582;BME280;47125;48.542;9.052;2023-02-26T12:06:49;95812.59;;;0.84;68.78
22582;BME280;47125;48.542;9.052;2023-02-26T12:16:57;95812.97;;;1.10;67.96
22582;BME280;47125;48.542;9.052;2023-02-26T12:27:05;95814.78;;;1.10;66.17
22582;BME280;47125;48.542;9.052;2023-02-26T12:37:19;95814.50;;;0.90;67.96
22582;BME280;47125;48.542;9.052;2023-02-26T12:47:27;95814.97;;;2.78;64.78
22582;BME280;47125;48.542;9.052;2023-02-26T12:57:42;95824.53;;;1.66;65.79
22582;BME280;47125;48.542;9.052;2023-02-26T13:07:49;95822.78;;;1.52;65.02
22582;BME280;47125;48.542;9.052;2023-02-26T13:17:55;95825.50;;;1.44;64.10
22582;BME280;47125;48.542;9.052;2023-02-26T13:28:02;95838.72;;;1.51;66.80
22582;BME280;47125;48.542;9.052;2023-02-26T13:38:12;95843.44;;;1.20;68.18
22582;BME280;47125;48.542;9.052;2023-02-26T13:48:19;95853.81;;;1.78;67.53
22582;BME280;47125;48.542;9.052;2023-02-26T13:58:33;95833.28;;;1.88;66.55
22582;BME280;47125;48.542;9.052;2023-02-26T14:18:50;95837.28;;;1.48;66.62
22582;BME280;47125;48.542;9.052;2023-02-26T14:28:56;95864.72;;;1.75;64.42
22582;BME280;47125;48.542;9.052;2023-02-26T14:39:00;95853.75;;;1.93;62.26
22582;BME280;47125;48.542;9.052;2023-02-26T14:49:05;95867.25;;;1.83;61.24
22582;BME280;47125;48.542;9.052;2023-02-26T14:59:28;95874.88;;;1.78;61.71
22582;BME280;47125;48.542;9.052;2023-02-26T15:09:37;95890.38;;;1.88;59.73
22582;BME280;47125;48.542;9.052;2023-02-26T15:19:49;95877.94;;;2.17;58.39
22582;BME280;47125;48.542;9.052;2023-02-26T15:29:55;95884.91;;;2.46;57.42
22582;BME280;47125;48.542;9.052;2023-02-26T15:39:59;95909.09;;;2.14;58.39
22582;BME280;47125;48.542;9.052;2023-02-26T15:50:05;95906.50;;;1.49;59.59
22582;BME280;47125;48.542;9.052;2023-02-26T16:00:12;95918.88;;;4.00;60.02
22582;BME280;47125;48.542;9.052;2023-02-26T16:10:17;95940.28;;;2.53;57.80
22582;BME280;47125;48.542;9.052;2023-02-26T16:20:31;95953.03;;;2.13;58.11
22582;BME280;47125;48.542;9.052;2023-02-26T16:30:36;95956.78;;;2.19;58.17
22582;BME280;47125;48.542;9.052;2023-02-26T16:40:42;95977.47;;;2.22;57.62
22582;BME280;47125;48.542;9.052;2023-02-26T16:50:49;95977.34;;;1.50;57.38
22582;BME280;47125;48.542;9.052;2023-02-26T17:00:58;95995.50;;;1.45;59.29
22582;BME280;47125;48.542;9.052;2023-02-26T17:11:05;96016.53;;;1.16;57.97
22582;BME280;47125;48.542;9.052;2023-02-26T17:21:10;96023.59;;;1.16;58.23
22582;BME280;47125;48.542;9.052;2023-02-26T17:31:12;96022.75;;;1.00;58.73
22582;BME280;47125;48.542;9.052;2023-02-26T17:41:17;96059.38;;;1.02;58.24
22582;BME280;47125;48.542;9.052;2023-02-26T17:51:19;96071.81;;;0.85;58.98
22582;BME280;47125;48.542;9.052;2023-02-26T18:01:23;96061.88;;;0.73;57.36
22582;BME280;47125;48.542;9.052;2023-02-26T18:11:27;96075.28;;;0.63;57.64
22582;BME280;47125;48.542;9.052;2023-02-26T18:21:31;96075.09;;;0.65;57.43
22582;BME280;47125;48.542;9.052;2023-02-26T18:31:33;96076.75;;;0.57;57.78
22582;BME280;47125;48.542;9.052;2023-02-26T18:41:38;96075.00;;;0.50;58.32
22582;BME280;47125;48.542;9.052;2023-02-26T18:51:40;96091.47;;;0.67;58.24
22582;BME280;47125;48.542;9.052;2023-02-26T19:01:44;96085.88;;;0.47;57.84
22582;BME280;47125;48.542;9.052;2023-02-26T19:11:48;96090.56;;;0.29;58.11
22582;BME280;47125;48.542;9.052;2023-02-26T19:21:52;96103.84;;;0.27;58.25
22582;BME280;47125;48.542;9.052;2023-02-26T19:31:55;96129.50;;;0.56;58.83
22582;BME280;47125;48.542;9.052;2023-02-26T19:41:59;96137.47;;;0.32;58.46
22582;BME280;47125;48.542;9.052;2023-02-26T19:52:01;96151.25;;;0.42;59.03
22582;BME280;47125;48.542;9.052;2023-02-26T20:02:06;96159.75;;;0.44;59.62
22582;BME280;47125;48.542;9.052;2023-02-26T20:12:09;96169.66;;;0.26;59.24
22582;BME280;47125;48.542;9.052;2023-02-26T20:22:13;96192.66;;;0.24;59.14
22582;BME280;47125;48.542;9.052;2023-02-26T20:32:17;96198.53;;;0.34;59.24
22582;BME280;47125;48.542;9.052;2023-02-26T20:42:21;96213.66;;;0.24;59.70
22582;BME280;47125;48.542;9.052;2023-02-26T20:52:23;96215.63;;;0.22;59.48
22582;BME280;47125;48.542;9.052;2023-02-26T21:02:27;96207.81;;;-0.11;60.27
22582;BME280;47125;48.542;9.052;2023-02-26T21:12:30;96224.41;;;-0.18;60.04
22582;BME280;47125;48.542;9.052;2023-02-26T21:22:33;96231.44;;;-0.11;60.50
22582;BME280;47125;48.542;9.052;2023-02-26T21:32:36;96237.81;;;-0.53;61.48
22582;BME280;47125;48.542;9.052;2023-02-26T21:42:40;96228.00;;;-0.43;61.80
22582;BME280;47125;48.542;9.052;2023-02-26T21:52:43;96220.78;;;-0.58;62.28
22582;BME280;47125;48.542;9.052;2023-02-26T22:02:47;96210.44;;;-0.59;62.50
22582;BME280;47125;48.542;9.052;2023-02-26T22:12:50;96217.50;;;-0.43;61.72
22582;BME280;47125;48.542;9.052;2023-02-26T22:22:53;96210.78;;;-0.78;62.79
22582;BME280;47125;48.542;9.052;2023-02-26T22:32:56;96218.28;;;-0.83;63.33
22582;BME280;47125;48.542;9.052;2023-02-26T22:43:00;96219.56;;;-0.95;64.33
22582;BME280;47125;48.542;9.052;2023-02-26T22:53:04;96224.16;;;-0.89;64.12
22582;BME280;47125;48.542;9.052;2023-02-26T23:03:09;96224.00;;;-0.96;64.71
22582;BME280;47125;48.542;9.052;2023-02-26T23:13:11;96218.56;;;-1.11;64.72
22582;BME280;47125;48.542;9.052;2023-02-26T23:23:15;96232.97;;;-1.06;65.98
22582;BME280;47125;48.542;9.052;2023-02-26T23:33:18;96235.28;;;-1.12;65.43
22582;BME280;47125;48.542;9.052;2023-02-26T23:43:24;96226.53;;;-1.28;66.02
22582;BME280;47125;48.542;9.052;2023-02-26T23:53:26;96225.53;;;-1.35;66.32
